sensor_id;sensor_type;location;lat;lon;timestamp;P1;durP1;ratioP1;P2;durP2;ratioP2
9737;SDS011;4908;47.446;13.900;2023-09-19T00:02:07;0.67;;;0.67;;
9737;SDS011;4908;47.446;13.900;2023-09-19T00:04:36;1.53;;;0.77;;
9737;SDS011;4908;47.446;13.900;2023-09-19T00:07:05;0.93;;;0.90;;
9737;SDS011;4908;47.446;13.900;2023-09-19T00:09:32;1.13;;;1.00;;
9737;SDS011;4908;47.446;13.900;2023-09-19T00:12:02;0.87;;;0.87;;
9737;SDS011;4908;47.446;13.900;2023-09-19T00:14:30;1.10;;;1.10;;
9737;SDS011;4908;47.446;13.900;2023-09-19T00:16:59;0.90;;;0.90;;
9737;SDS011;4908;47.446;13.900;2023-09-19T00:19:31;1.27;;;0.90;;
9737;SDS011;4908;47.446;13.900;2023-09-19T00:21:59;1.27;;;1.20;;
9737;SDS011;4908;47.446;13.900;2023-09-19T00:24:26;1.03;;;0.83;;
9737;SDS011;4908;47.446;13.900;2023-09-19T00:26:54;0.93;;;0.83;;
9737;SDS011;4908;47.446;13.900;2023-09-19T00:29:21;1.03;;;1.03;;
9737;SDS011;4908;47.446;13.900;2023-09-19T00:31:48;1.43;;;1.33;;
9737;SDS011;4908;47.446;13.900;2023-09-19T00:34:16;0.90;;;0.90;;
9737;SDS011;4908;47.446;13.900;2023-09-19T00:36:43;0.90;;;0.90;;
9737;SDS011;4908;47.446;13.900;2023-09-19T00:39:12;1.50;;;0.93;;
9737;SDS011;4908;47.446;13.900;2023-09-19T00:41:39;1.23;;;1.13;;
9737;SDS011;4908;47.446;13.900;2023-09-19T00:44:06;2.80;;;1.10;;
9737;SDS011;4908;47.446;13.900;2023-09-19T00:46:34;1.33;;;0.90;;
9737;SDS011;4908;47.446;13.900;2023-09-19T00:49:02;1.03;;;0.90;;
9737;SDS011;4908;47.446;13.900;2023-09-19T00:51:29;1.00;;;1.00;;
9737;SDS011;4908;47.446;13.900;2023-09-19T00:53:56;0.90;;;0.90;;
9737;SDS011;4908;47.446;13.900;2023-09-19T00:56:26;0.90;;;0.90;;
9737;SDS011;4908;47.446;13.900;2023-09-19T00:58:54;0.90;;;0.90;;
9737;SDS011;4908;47.446;13.900;2023-09-19T01:01:21;0.97;;;0.87;;
9737;SDS011;4908;47.446;13.900;2023-09-19T01:03:48;0.90;;;0.90;;
9737;SDS011;4908;47.446;13.900;2023-09-19T01:06:16;0.80;;;0.80;;
9737;SDS011;4908;47.446;13.900;2023-09-19T01:08:43;1.27;;;0.90;;
9737;SDS011;4908;47.446;13.900;2023-09-19T01:11:12;0.97;;;0.87;;
9737;SDS011;4908;47.446;13.900;2023-09-19T01:13:54;1.20;;;1.10;;
9737;SDS011;4908;47.446;13.900;2023-09-19T01:16:30;1.10;;;0.97;;
9737;SDS011;4908;47.446;13.900;2023-09-19T01:19:07;1.00;;;1.00;;
9737;SDS011;4908;47.446;13.900;2023-09-19T01:21:54;1.00;;;0.90;;
9737;SDS011;4908;47.446;13.900;2023-09-19T01:24:46;1.23;;;1.00;;
9737;SDS011;4908;47.446;13.900;2023-09-19T01:27:40;1.10;;;1.00;;
9737;SDS011;4908;47.446;13.900;2023-09-19T01:30:32;1.20;;;1.10;;
9737;SDS011;4908;47.446;13.900;2023-09-19T01:33:02;0.50;;;0.50;;
9737;SDS011;4908;47.446;13.900;2023-09-19T01:35:31;1.30;;;1.17;;
9737;SDS011;4908;47.446;13.900;2023-09-19T01:37:59;0.97;;;0.97;;
9737;SDS011;4908;47.446;13.900;2023-09-19T01:40:26;1.77;;;1.30;;
9737;SDS011;4908;47.446;13.900;2023-09-19T01:42:54;2.63;;;1.20;;
9737;SDS011;4908;47.446;13.900;2023-09-19T01:45:26;1.97;;;1.10;;
9737;SDS011;4908;47.446;13.900;2023-09-19T01:48:02;1.43;;;1.33;;
9737;SDS011;4908;47.446;13.900;2023-09-19T01:50:42;1.00;;;1.00;;
9737;SDS011;4908;47.446;13.900;2023-09-19T01:53:19;0.90;;;0.90;;
9737;SDS011;4908;47.446;13.900;2023-09-19T01:55:53;1.03;;;1.03;;
9737;SDS011;4908;47.446;13.900;2023-09-19T01:58:21;1.23;;;0.83;;
9737;SDS011;4908;47.446;13.900;2023-09-19T02:00:57;1.87;;;1.10;;
9737;SDS011;4908;47.446;13.900;2023-09-19T02:03:26;1.30;;;1.20;;
9737;SDS011;4908;47.446;13.900;2023-09-19T02:05:55;1.20;;;1.10;;
9737;SDS011;4908;47.446;13.900;2023-09-19T02:08:22;1.43;;;1.30;;
9737;SDS011;4908;47.446;13.900;2023-09-19T02:10:50;1.10;;;1.03;;
9737;SDS011;4908;47.446;13.900;2023-09-19T02:13:18;0.97;;;0.97;;
9737;SDS011;4908;47.446;13.900;2023-09-19T02:15:46;1.10;;;1.10;;
9737;SDS011;4908;47.446;13.900;2023-09-19T02:18:14;1.10;;;1.10;;
9737;SDS011;4908;47.446;13.900;2023-09-19T02:20:42;1.37;;;1.03;;
9737;SDS011;4908;47.446;13.900;2023-09-19T02:23:09;1.07;;;1.07;;
9737;SDS011;4908;47.446;13.900;2023-09-19T02:25:37;3.17;;;1.00;;
9737;SDS011;4908;47.446;13.900;2023-09-19T02:28:05;1.10;;;1.10;;
9737;SDS011;4908;47.446;13.900;2023-09-19T02:30:34;1.47;;;1.07;;
9737;SDS011;4908;47.446;13.900;2023-09-19T02:33:02;1.20;;;1.10;;
9737;SDS011;4908;47.446;13.900;2023-09-19T02:35:31;1.43;;;1.30;;
9737;SDS011;4908;47.446;13.900;2023-09-19T02:38:01;0.90;;;0.90;;
9737;SDS011;4908;47.446;13.900;2023-09-19T02:40:31;1.03;;;0.93;;
9737;SDS011;4908;47.446;13.900;2023-09-19T02:43:01;1.17;;;1.17;;
9737;SDS011;4908;47.446;13.900;2023-09-19T02:45:28;1.10;;;1.00;;
9737;SDS011;4908;47.446;13.900;2023-09-19T02:47:56;1.07;;;1.07;;
9737;SDS011;4908;47.446;13.900;2023-09-19T02:50:23;1.10;;;1.10;;
9737;SDS011;4908;47.446;13.900;2023-09-19T02:52:52;1.37;;;1.23;;
9737;SDS011;4908;47.446;13.900;2023-09-19T02:55:20;0.93;;;0.90;;
9737;SDS011;4908;47.446;13.900;2023-09-19T02:57:48;1.03;;;0.80;;
9737;SDS011;4908;47.446;13.900;2023-09-19T03:00:16;0.97;;;0.97;;
9737;SDS011;4908;47.446;13.900;2023-09-19T03:02:46;1.43;;;1.03;;
9737;SDS011;4908;47.446;13.900;2023-09-19T03:05:14;1.00;;;1.00;;
9737;SDS011;4908;47.446;13.900;2023-09-19T03:07:41;1.33;;;1.27;;
9737;SDS011;4908;47.446;13.900;2023-09-19T03:10:12;0.80;;;0.80;;
9737;SDS011;4908;47.446;13.900;2023-09-19T03:12:41;0.87;;;0.87;;
9737;SDS011;4908;47.446;13.900;2023-09-19T03:15:08;1.03;;;1.00;;
9737;SDS011;4908;47.446;13.900;2023-09-19T03:17:36;1.67;;;1.00;;
9737;SDS011;4908;47.446;13.900;2023-09-19T03:20:04;2.90;;;1.07;;
9737;SDS011;4908;47.446;13.900;2023-09-19T03:22:34;1.07;;;0.97;;
9737;SDS011;4908;47.446;13.900;2023-09-19T03:25:01;1.97;;;1.10;;
9737;SDS011;4908;47.446;13.900;2023-09-19T03:27:34;1.10;;;1.10;;
9737;SDS011;4908;47.446;13.900;2023-09-19T03:30:01;1.20;;;1.10;;
9737;SDS011;4908;47.446;13.900;2023-09-19T03:32:33;1.30;;;1.20;;
9737;SDS011;4908;47.446;13.900;2023-09-19T03:35:01;1.20;;;1.10;;
9737;SDS011;4908;47.446;13.900;2023-09-19T03:37:30;1.33;;;1.03;;
9737;SDS011;4908;47.446;13.900;2023-09-19T03:39:58;1.30;;;1.20;;
9737;SDS011;4908;47.446;13.900;2023-09-19T03:42:30;1.60;;;1.10;;
9737;SDS011;4908;47.446;13.900;2023-09-19T03:44:58;1.07;;;1.07;;
9737;SDS011;4908;47.446;13.900;2023-09-19T03:47:31;1.90;;;1.30;;
9737;SDS011;4908;47.446;13.900;2023-09-19T03:49:58;0.93;;;0.93;;
9737;SDS011;4908;47.446;13.900;2023-09-19T03:52:25;1.00;;;1.00;;
9737;SDS011;4908;47.446;13.900;2023-09-19T03:54:52;1.50;;;1.40;;
9737;SDS011;4908;47.446;13.900;2023-09-19T03:57:20;1.67;;;1.33;;
9737;SDS011;4908;47.446;13.900;2023-09-19T03:59:47;1.20;;;1.20;;
9737;SDS011;4908;47.446;13.900;2023-09-19T04:02:15;2.20;;;1.40;;
9737;SDS011;4908;47.446;13.900;2023-09-19T04:04:48;1.50;;;1.40;;
9737;SDS011;4908;47.446;13.900;2023-09-19T04:07:16;1.80;;;1.70;;
9737;SDS011;4908;47.446;13.900;2023-09-19T04:09:44;1.77;;;1.67;;
9737;SDS011;4908;47.446;13.900;2023-09-19T04:12:12;1.60;;;1.50;;
9737;SDS011;4908;47.446;13.900;2023-09-19T04:14:42;1.47;;;1.47;;
9737;SDS011;4908;47.446;13.900;2023-09-19T04:17:09;1.57;;;1.30;;
9737;SDS011;4908;47.446;13.900;2023-09-19T04:19:38;1.60;;;1.50;;
9737;SDS011;4908;47.446;13.900;2023-09-19T04:22:06;1.40;;;1.30;;
9737;SDS011;4908;47.446;13.900;2023-09-19T04:24:34;2.57;;;1.80;;
9737;SDS011;4908;47.446;13.900;2023-09-19T04:27:03;1.90;;;1.50;;
9737;SDS011;4908;47.446;13.900;2023-09-19T04:29:31;1.37;;;1.30;;
9737;SDS011;4908;47.446;13.900;2023-09-19T04:31:58;2.93;;;1.50;;
9737;SDS011;4908;47.446;13.900;2023-09-19T04:34:25;1.40;;;1.30;;
9737;SDS011;4908;47.446;13.900;2023-09-19T04:36:54;1.33;;;1.10;;
9737;SDS011;4908;47.446;13.900;2023-09-19T04:39:21;1.30;;;1.20;;
9737;SDS011;4908;47.446;13.900;2023-09-19T04:41:51;1.33;;;1.17;;
9737;SDS011;4908;47.446;13.900;2023-09-19T04:44:18;2.53;;;1.63;;
9737;SDS011;4908;47.446;13.900;2023-09-19T04:46:46;2.10;;;1.30;;
9737;SDS011;4908;47.446;13.900;2023-09-19T04:49:13;2.00;;;1.30;;
9737;SDS011;4908;47.446;13.900;2023-09-19T04:51:40;1.67;;;1.30;;
9737;SDS011;4908;47.446;13.900;2023-09-19T04:54:09;1.27;;;1.17;;
9737;SDS011;4908;47.446;13.900;2023-09-19T04:56:36;1.30;;;1.30;;
9737;SDS011;4908;47.446;13.900;2023-09-19T04:59:05;1.20;;;1.20;;
9737;SDS011;4908;47.446;13.900;2023-09-19T05:01:33;1.30;;;1.30;;
9737;SDS011;4908;47.446;13.900;2023-09-19T05:04:00;1.57;;;1.47;;
9737;SDS011;4908;47.446;13.900;2023-09-19T05:06:27;2.77;;;1.90;;
9737;SDS011;4908;47.446;13.900;2023-09-19T05:08:54;1.80;;;1.27;;
9737;SDS011;4908;47.446;13.900;2023-09-19T05:11:22;1.20;;;1.20;;
9737;SDS011;4908;47.446;13.900;2023-09-19T05:13:49;1.80;;;1.53;;
9737;SDS011;4908;47.446;13.900;2023-09-19T05:16:17;1.60;;;1.50;;
9737;SDS011;4908;47.446;13.900;2023-09-19T05:18:44;1.50;;;1.50;;
9737;SDS011;4908;47.446;13.900;2023-09-19T05:21:11;1.40;;;1.40;;
9737;SDS011;4908;47.446;13.900;2023-09-19T05:23:39;1.33;;;1.33;;
9737;SDS011;4908;47.446;13.900;2023-09-19T05:26:06;3.43;;;1.53;;
9737;SDS011;4908;47.446;13.900;2023-09-19T05:28:34;1.60;;;1.50;;
9737;SDS011;4908;47.446;13.900;2023-09-19T05:31:03;1.40;;;1.40;;
9737;SDS011;4908;47.446;13.900;2023-09-19T05:33:30;1.93;;;1.53;;
9737;SDS011;4908;47.446;13.900;2023-09-19T05:35:58;1.70;;;1.70;;
9737;SDS011;4908;47.446;13.900;2023-09-19T05:38:25;1.57;;;1.33;;
9737;SDS011;4908;47.446;13.900;2023-09-19T05:40:52;1.47;;;1.47;;
9737;SDS011;4908;47.446;13.900;2023-09-19T05:43:19;1.60;;;1.50;;
9737;SDS011;4908;47.446;13.900;2023-09-19T05:45:48;1.33;;;1.23;;
9737;SDS011;4908;47.446;13.900;2023-09-19T05:48:17;2.27;;;1.63;;
9737;SDS011;4908;47.446;13.900;2023-09-19T05:50:46;1.80;;;1.50;;
9737;SDS011;4908;47.446;13.900;2023-09-19T05:53:13;1.60;;;1.60;;
9737;SDS011;4908;47.446;13.900;2023-09-19T05:55:41;1.80;;;1.80;;
9737;SDS011;4908;47.446;13.900;2023-09-19T05:58:08;1.70;;;1.60;;
9737;SDS011;4908;47.446;13.900;2023-09-19T06:00:35;2.00;;;1.80;;
9737;SDS011;4908;47.446;13.900;2023-09-19T06:03:04;1.87;;;1.77;;
9737;SDS011;4908;47.446;13.900;2023-09-19T06:05:31;2.17;;;1.57;;
9737;SDS011;4908;47.446;13.900;2023-09-19T06:07:58;1.97;;;1.50;;
9737;SDS011;4908;47.446;13.900;2023-09-19T06:10:25;2.13;;;2.00;;
9737;SDS011;4908;47.446;13.900;2023-09-19T06:12:53;2.13;;;1.97;;
9737;SDS011;4908;47.446;13.900;2023-09-19T06:15:23;1.90;;;1.80;;
9737;SDS011;4908;47.446;13.900;2023-09-19T06:17:51;2.00;;;1.90;;
9737;SDS011;4908;47.446;13.900;2023-09-19T06:20:21;5.20;;;2.00;;
9737;SDS011;4908;47.446;13.900;2023-09-19T06:22:49;2.63;;;2.00;;
9737;SDS011;4908;47.446;13.900;2023-09-19T06:25:16;4.20;;;2.33;;
9737;SDS011;4908;47.446;13.900;2023-09-19T06:27:44;3.67;;;2.17;;
9737;SDS011;4908;47.446;13.900;2023-09-19T06:30:11;1.93;;;1.77;;
9737;SDS011;4908;47.446;13.900;2023-09-19T06:32:38;2.00;;;1.90;;
9737;SDS011;4908;47.446;13.900;2023-09-19T06:35:09;4.33;;;2.20;;
9737;SDS011;4908;47.446;13.900;2023-09-19T06:37:37;2.33;;;2.20;;
9737;SDS011;4908;47.446;13.900;2023-09-19T06:40:07;2.10;;;2.00;;
9737;SDS011;4908;47.446;13.900;2023-09-19T06:42:38;2.63;;;2.43;;
9737;SDS011;4908;47.446;13.900;2023-09-19T06:45:07;1.97;;;1.87;;
9737;SDS011;4908;47.446;13.900;2023-09-19T06:47:36;2.00;;;1.90;;
9737;SDS011;4908;47.446;13.900;2023-09-19T06:50:04;2.60;;;1.60;;
9737;SDS011;4908;47.446;13.900;2023-09-19T06:52:34;2.13;;;1.70;;
9737;SDS011;4908;47.446;13.900;2023-09-19T06:55:03;6.97;;;2.20;;
9737;SDS011;4908;47.446;13.900;2023-09-19T06:57:31;1.77;;;1.57;;
9737;SDS011;4908;47.446;13.900;2023-09-19T06:59:58;2.07;;;1.87;;
9737;SDS011;4908;47.446;13.900;2023-09-19T07:02:26;1.50;;;1.40;;
9737;SDS011;4908;47.446;13.900;2023-09-19T07:04:53;1.77;;;1.47;;
9737;SDS011;4908;47.446;13.900;2023-09-19T07:07:20;1.97;;;1.50;;
9737;SDS011;4908;47.446;13.900;2023-09-19T07:09:47;3.13;;;1.47;;
9737;SDS011;4908;47.446;13.900;2023-09-19T07:12:17;2.77;;;1.50;;
9737;SDS011;4908;47.446;13.900;2023-09-19T07:14:44;2.50;;;1.70;;
9737;SDS011;4908;47.446;13.900;2023-09-19T07:17:11;2.53;;;1.20;;
9737;SDS011;4908;47.446;13.900;2023-09-19T07:19:43;2.73;;;1.63;;
9737;SDS011;4908;47.446;13.900;2023-09-19T07:22:10;1.63;;;1.53;;
9737;SDS011;4908;47.446;13.900;2023-09-19T07:24:37;1.20;;;1.20;;
9737;SDS011;4908;47.446;13.900;2023-09-19T07:27:04;1.63;;;1.53;;
9737;SDS011;4908;47.446;13.900;2023-09-19T07:29:33;3.43;;;1.40;;
9737;SDS011;4908;47.446;13.900;2023-09-19T07:31:59;1.37;;;1.27;;
9737;SDS011;4908;47.446;13.900;2023-09-19T07:34:26;1.20;;;1.10;;
9737;SDS011;4908;47.446;13.900;2023-09-19T07:36:54;1.17;;;1.00;;
9737;SDS011;4908;47.446;13.900;2023-09-19T07:39:21;1.20;;;1.13;;
9737;SDS011;4908;47.446;13.900;2023-09-19T07:41:49;3.27;;;1.50;;
9737;SDS011;4908;47.446;13.900;2023-09-19T07:44:16;2.50;;;1.20;;
9737;SDS011;4908;47.446;13.900;2023-09-19T07:46:44;1.10;;;1.10;;
9737;SDS011;4908;47.446;13.900;2023-09-19T07:49:11;1.10;;;1.10;;
9737;SDS011;4908;47.446;13.900;2023-09-19T07:51:38;1.23;;;1.17;;
9737;SDS011;4908;47.446;13.900;2023-09-19T07:54:06;3.47;;;1.43;;
9737;SDS011;4908;47.446;13.900;2023-09-19T07:56:33;1.63;;;1.47;;
9737;SDS011;4908;47.446;13.900;2023-09-19T07:59:00;1.20;;;1.20;;
9737;SDS011;4908;47.446;13.900;2023-09-19T08:01:27;1.27;;;1.23;;
9737;SDS011;4908;47.446;13.900;2023-09-19T08:03:56;1.90;;;1.13;;
9737;SDS011;4908;47.446;13.900;2023-09-19T08:06:24;2.13;;;1.30;;
9737;SDS011;4908;47.446;13.900;2023-09-19T08:08:54;1.20;;;1.10;;
9737;SDS011;4908;47.446;13.900;2023-09-19T08:11:22;3.53;;;1.13;;
9737;SDS011;4908;47.446;13.900;2023-09-19T08:13:49;3.83;;;1.40;;
9737;SDS011;4908;47.446;13.900;2023-09-19T08:16:17;1.13;;;1.13;;
9737;SDS011;4908;47.446;13.900;2023-09-19T08:18:47;2.73;;;1.40;;
9737;SDS011;4908;47.446;13.900;2023-09-19T08:21:21;1.90;;;1.40;;
9737;SDS011;4908;47.446;13.900;2023-09-19T08:23:49;1.47;;;1.17;;
9737;SDS011;4908;47.446;13.900;2023-09-19T08:26:16;1.50;;;1.40;;
9737;SDS011;4908;47.446;13.900;2023-09-19T08:28:44;1.50;;;1.40;;
9737;SDS011;4908;47.446;13.900;2023-09-19T08:31:11;2.13;;;1.40;;
9737;SDS011;4908;47.446;13.900;2023-09-19T08:33:38;1.30;;;1.07;;
9737;SDS011;4908;47.446;13.900;2023-09-19T08:36:06;4.67;;;2.07;;
9737;SDS011;4908;47.446;13.900;2023-09-19T08:38:36;5.23;;;1.93;;
9737;SDS011;4908;47.446;13.900;2023-09-19T08:41:05;2.00;;;1.50;;
9737;SDS011;4908;47.446;13.900;2023-09-19T08:43:33;2.70;;;1.30;;
9737;SDS011;4908;47.446;13.900;2023-09-19T08:46:03;1.30;;;1.20;;
9737;SDS011;4908;47.446;13.900;2023-09-19T08:48:36;4.07;;;1.73;;
9737;SDS011;4908;47.446;13.900;2023-09-19T08:51:07;1.43;;;1.20;;
9737;SDS011;4908;47.446;13.900;2023-09-19T08:53:42;1.10;;;1.10;;
9737;SDS011;4908;47.446;13.900;2023-09-19T08:56:17;1.03;;;1.03;;
9737;SDS011;4908;47.446;13.900;2023-09-19T08:58:46;1.80;;;1.70;;
9737;SDS011;4908;47.446;13.900;2023-09-19T09:01:18;2.10;;;1.20;;
9737;SDS011;4908;47.446;13.900;2023-09-19T09:03:49;1.37;;;1.27;;
9737;SDS011;4908;47.446;13.900;2023-09-19T09:06:17;1.50;;;1.40;;
9737;SDS011;4908;47.446;13.900;2023-09-19T09:08:48;1.40;;;1.30;;
9737;SDS011;4908;47.446;13.900;2023-09-19T09:11:17;2.57;;;1.20;;
9737;SDS011;4908;47.446;13.900;2023-09-19T09:13:44;3.77;;;1.27;;
9737;SDS011;4908;47.446;13.900;2023-09-19T09:16:12;1.43;;;1.00;;
9737;SDS011;4908;47.446;13.900;2023-09-19T09:18:44;1.40;;;1.30;;
9737;SDS011;4908;47.446;13.900;2023-09-19T09:21:12;1.20;;;1.20;;
9737;SDS011;4908;47.446;13.900;2023-09-19T09:23:41;1.13;;;1.07;;
9737;SDS011;4908;47.446;13.900;2023-09-19T09:26:09;1.27;;;1.00;;
9737;SDS011;4908;47.446;13.900;2023-09-19T09:28:38;1.40;;;1.17;;
9737;SDS011;4908;47.446;13.900;2023-09-19T09:31:21;1.20;;;1.20;;
9737;SDS011;4908;47.446;13.900;2023-09-19T09:33:52;1.60;;;1.40;;
9737;SDS011;4908;47.446;13.900;2023-09-19T09:36:32;1.67;;;1.10;;
9737;SDS011;4908;47.446;13.900;2023-09-19T09:39:01;1.13;;;1.03;;
9737;SDS011;4908;47.446;13.900;2023-09-19T09:41:42;1.20;;;1.20;;
9737;SDS011;4908;47.446;13.900;2023-09-19T09:44:14;1.30;;;1.20;;
9737;SDS011;4908;47.446;13.900;2023-09-19T09:46:44;2.83;;;1.00;;
9737;SDS011;4908;47.446;13.900;2023-09-19T09:49:28;2.83;;;1.10;;
9737;SDS011;4908;47.446;13.900;2023-09-19T09:51:59;1.33;;;0.83;;
9737;SDS011;4908;47.446;13.900;2023-09-19T09:54:31;1.63;;;1.23;;
9737;SDS011;4908;47.446;13.900;2023-09-19T09:57:04;0.90;;;0.90;;
9737;SDS011;4908;47.446;13.900;2023-09-19T09:59:49;1.00;;;1.00;;
9737;SDS011;4908;47.446;13.900;2023-09-19T10:02:19;2.40;;;0.90;;
9737;SDS011;4908;47.446;13.900;2023-09-19T10:04:51;1.13;;;0.97;;
9737;SDS011;4908;47.446;13.900;2023-09-19T10:07:26;2.43;;;1.03;;
9737;SDS011;4908;47.446;13.900;2023-09-19T10:09:57;1.07;;;0.97;;
9737;SDS011;4908;47.446;13.900;2023-09-19T10:12:36;1.00;;;1.00;;
9737;SDS011;4908;47.446;13.900;2023-09-19T10:15:08;1.60;;;0.80;;
9737;SDS011;4908;47.446;13.900;2023-09-19T10:17:38;0.97;;;0.83;;
9737;SDS011;4908;47.446;13.900;2023-09-19T10:20:12;1.53;;;1.40;;
9737;SDS011;4908;47.446;13.900;2023-09-19T10:22:57;3.03;;;1.07;;
9737;SDS011;4908;47.446;13.900;2023-09-19T10:25:27;1.80;;;1.00;;
9737;SDS011;4908;47.446;13.900;2023-09-19T10:27:58;1.10;;;0.83;;
9737;SDS011;4908;47.446;13.900;2023-09-19T10:30:28;0.90;;;0.90;;
9737;SDS011;4908;47.446;13.900;2023-09-19T10:32:59;1.47;;;0.90;;
9737;SDS011;4908;47.446;13.900;2023-09-19T10:35:27;1.60;;;0.90;;
9737;SDS011;4908;47.446;13.900;2023-09-19T10:37:57;1.00;;;0.90;;
9737;SDS011;4908;47.446;13.900;2023-09-19T10:40:28;1.00;;;1.00;;
9737;SDS011;4908;47.446;13.900;2023-09-19T10:43:00;1.00;;;1.00;;
9737;SDS011;4908;47.446;13.900;2023-09-19T10:45:30;2.37;;;0.90;;
9737;SDS011;4908;47.446;13.900;2023-09-19T10:47:58;2.10;;;1.00;;
9737;SDS011;4908;47.446;13.900;2023-09-19T10:50:28;2.23;;;1.10;;
9737;SDS011;4908;47.446;13.900;2023-09-19T10:52:59;2.17;;;1.27;;
9737;SDS011;4908;47.446;13.900;2023-09-19T10:55:32;2.90;;;1.07;;
9737;SDS011;4908;47.446;13.900;2023-09-19T10:58:03;1.33;;;1.20;;
9737;SDS011;4908;47.446;13.900;2023-09-19T11:03:30;1.90;;;1.30;;
9737;SDS011;4908;47.446;13.900;2023-09-19T11:08:57;1.33;;;0.97;;
9737;SDS011;4908;47.446;13.900;2023-09-19T11:11:47;4.00;;;1.13;;
9737;SDS011;4908;47.446;13.900;2023-09-19T11:14:39;1.33;;;1.00;;
9737;SDS011;4908;47.446;13.900;2023-09-19T11:17:30;1.10;;;0.97;;
9737;SDS011;4908;47.446;13.900;2023-09-19T11:20:19;2.70;;;1.00;;
9737;SDS011;4908;47.446;13.900;2023-09-19T11:23:22;2.83;;;0.93;;
9737;SDS011;4908;47.446;13.900;2023-09-19T11:25:54;1.40;;;1.00;;
9737;SDS011;4908;47.446;13.900;2023-09-19T11:28:28;1.93;;;1.30;;
9737;SDS011;4908;47.446;13.900;2023-09-19T11:40:32;2.20;;;1.40;;
9737;SDS011;4908;47.446;13.900;2023-09-19T11:43:01;1.23;;;1.13;;
9737;SDS011;4908;47.446;13.900;2023-09-19T11:46:05;1.17;;;1.00;;
9737;SDS011;4908;47.446;13.900;2023-09-19T11:48:32;1.80;;;1.10;;
9737;SDS011;4908;47.446;13.900;2023-09-19T11:51:11;0.77;;;0.77;;
9737;SDS011;4908;47.446;13.900;2023-09-19T11:53:45;0.73;;;0.73;;
9737;SDS011;4908;47.446;13.900;2023-09-19T11:56:15;0.80;;;0.80;;
9737;SDS011;4908;47.446;13.900;2023-09-19T11:58:44;1.03;;;0.97;;
9737;SDS011;4908;47.446;13.900;2023-09-19T12:01:14;1.00;;;0.70;;
9737;SDS011;4908;47.446;13.900;2023-09-19T12:03:47;1.03;;;1.03;;
9737;SDS011;4908;47.446;13.900;2023-09-19T12:06:21;1.23;;;1.13;;
9737;SDS011;4908;47.446;13.900;2023-09-19T12:08:49;0.80;;;0.80;;
9737;SDS011;4908;47.446;13.900;2023-09-19T12:11:19;1.37;;;0.93;;
9737;SDS011;4908;47.446;13.900;2023-09-19T12:13:48;0.83;;;0.83;;
9737;SDS011;4908;47.446;13.900;2023-09-19T12:16:17;0.60;;;0.60;;
9737;SDS011;4908;47.446;13.900;2023-09-19T12:18:47;1.00;;;0.60;;
9737;SDS011;4908;47.446;13.900;2023-09-19T12:21:26;1.03;;;0.83;;
9737;SDS011;4908;47.446;13.900;2023-09-19T12:23:59;1.27;;;0.97;;
9737;SDS011;4908;47.446;13.900;2023-09-19T12:26:37;0.93;;;0.80;;
9737;SDS011;4908;47.446;13.900;2023-09-19T12:29:16;1.00;;;0.83;;
9737;SDS011;4908;47.446;13.900;2023-09-19T12:31:49;0.70;;;0.60;;
9737;SDS011;4908;47.446;13.900;2023-09-19T12:34:19;0.80;;;0.80;;
9737;SDS011;4908;47.446;13.900;2023-09-19T12:36:49;0.70;;;0.70;;
9737;SDS011;4908;47.446;13.900;2023-09-19T12:39:30;2.23;;;0.80;;
9737;SDS011;4908;47.446;13.900;2023-09-19T12:41:57;0.80;;;0.80;;
9737;SDS011;4908;47.446;13.900;2023-09-19T12:44:29;1.03;;;0.90;;
9737;SDS011;4908;47.446;13.900;2023-09-19T12:46:56;2.10;;;0.80;;
9737;SDS011;4908;47.446;13.900;2023-09-19T12:49:24;3.33;;;0.93;;
9737;SDS011;4908;47.446;13.900;2023-09-19T12:51:55;1.00;;;0.87;;
9737;SDS011;4908;47.446;13.900;2023-09-19T12:54:24;0.80;;;0.80;;
9737;SDS011;4908;47.446;13.900;2023-09-19T12:56:51;0.87;;;0.87;;
9737;SDS011;4908;47.446;13.900;2023-09-19T12:59:19;1.47;;;0.90;;
9737;SDS011;4908;47.446;13.900;2023-09-19T13:02:03;2.00;;;0.90;;
9737;SDS011;4908;47.446;13.900;2023-09-19T13:04:32;1.57;;;1.07;;
9737;SDS011;4908;47.446;13.900;2023-09-19T13:07:06;2.60;;;0.80;;
9737;SDS011;4908;47.446;13.900;2023-09-19T13:09:34;0.93;;;0.93;;
9737;SDS011;4908;47.446;13.900;2023-09-19T13:12:03;0.70;;;0.70;;
9737;SDS011;4908;47.446;13.900;2023-09-19T13:14:32;0.93;;;0.93;;
9737;SDS011;4908;47.446;13.900;2023-09-19T13:17:03;0.90;;;0.90;;
9737;SDS011;4908;47.446;13.900;2023-09-19T13:19:41;0.90;;;0.90;;
9737;SDS011;4908;47.446;13.900;2023-09-19T13:25:08;1.55;;;0.75;;
9737;SDS011;4908;47.446;13.900;2023-09-19T13:27:39;1.55;;;1.02;;
9737;SDS011;4908;47.446;13.900;2023-09-19T13:30:08;1.00;;;1.00;;
9737;SDS011;4908;47.446;13.900;2023-09-19T13:32:35;0.80;;;0.80;;
9737;SDS011;4908;47.446;13.900;2023-09-19T13:35:05;0.70;;;0.70;;
9737;SDS011;4908;47.446;13.900;2023-09-19T13:37:34;1.00;;;1.00;;
9737;SDS011;4908;47.446;13.900;2023-09-19T13:40:08;1.17;;;1.00;;
9737;SDS011;4908;47.446;13.900;2023-09-19T13:42:36;0.93;;;0.93;;
9737;SDS011;4908;47.446;13.900;2023-09-19T13:45:04;0.73;;;0.63;;
9737;SDS011;4908;47.446;13.900;2023-09-19T13:47:32;1.75;;;0.80;;
9737;SDS011;4908;47.446;13.900;2023-09-19T13:49:59;0.93;;;0.93;;
9737;SDS011;4908;47.446;13.900;2023-09-19T13:52:26;1.08;;;0.95;;
9737;SDS011;4908;47.446;13.900;2023-09-19T13:54:55;1.65;;;0.88;;
9737;SDS011;4908;47.446;13.900;2023-09-19T13:57:24;4.23;;;1.00;;
9737;SDS011;4908;47.446;13.900;2023-09-19T13:59:52;5.13;;;0.97;;
9737;SDS011;4908;47.446;13.900;2023-09-19T14:02:20;1.37;;;0.90;;
9737;SDS011;4908;47.446;13.900;2023-09-19T14:04:48;0.83;;;0.80;;
9737;SDS011;4908;47.446;13.900;2023-09-19T14:07:15;1.50;;;0.87;;
9737;SDS011;4908;47.446;13.900;2023-09-19T14:09:45;0.70;;;0.70;;
9737;SDS011;4908;47.446;13.900;2023-09-19T14:12:12;0.77;;;0.77;;
9737;SDS011;4908;47.446;13.900;2023-09-19T14:14:40;1.60;;;0.90;;
9737;SDS011;4908;47.446;13.900;2023-09-19T14:17:07;0.90;;;0.90;;
9737;SDS011;4908;47.446;13.900;2023-09-19T14:19:35;1.05;;;0.63;;
9737;SDS011;4908;47.446;13.900;2023-09-19T14:22:02;0.87;;;0.87;;
9737;SDS011;4908;47.446;13.900;2023-09-19T14:24:32;0.73;;;0.73;;
9737;SDS011;4908;47.446;13.900;2023-09-19T14:27:00;0.80;;;0.80;;
9737;SDS011;4908;47.446;13.900;2023-09-19T14:29:29;1.03;;;1.03;;
9737;SDS011;4908;47.446;13.900;2023-09-19T14:31:57;2.33;;;1.00;;
9737;SDS011;4908;47.446;13.900;2023-09-19T14:34:25;1.10;;;1.10;;
9737;SDS011;4908;47.446;13.900;2023-09-19T14:36:52;1.10;;;1.00;;
9737;SDS011;4908;47.446;13.900;2023-09-19T14:39:19;2.00;;;1.17;;
9737;SDS011;4908;47.446;13.900;2023-09-19T14:41:46;0.80;;;0.80;;
9737;SDS011;4908;47.446;13.900;2023-09-19T14:44:13;1.47;;;1.00;;
9737;SDS011;4908;47.446;13.900;2023-09-19T14:46:41;1.63;;;1.10;;
9737;SDS011;4908;47.446;13.900;2023-09-19T14:49:10;1.20;;;1.10;;
9737;SDS011;4908;47.446;13.900;2023-09-19T14:51:37;1.23;;;0.70;;
9737;SDS011;4908;47.446;13.900;2023-09-19T14:54:06;0.87;;;0.80;;
9737;SDS011;4908;47.446;13.900;2023-09-19T14:56:33;0.97;;;0.97;;
9737;SDS011;4908;47.446;13.900;2023-09-19T14:59:00;1.07;;;0.80;;
9737;SDS011;4908;47.446;13.900;2023-09-19T15:01:27;0.97;;;0.70;;
9737;SDS011;4908;47.446;13.900;2023-09-19T15:03:54;0.77;;;0.77;;
9737;SDS011;4908;47.446;13.900;2023-09-19T15:06:23;0.77;;;0.77;;
9737;SDS011;4908;47.446;13.900;2023-09-19T15:08:51;0.77;;;0.77;;
9737;SDS011;4908;47.446;13.900;2023-09-19T15:11:19;0.68;;;0.68;;
9737;SDS011;4908;47.446;13.900;2023-09-19T15:13:46;0.60;;;0.60;;
9737;SDS011;4908;47.446;13.900;2023-09-19T15:16:14;0.80;;;0.70;;
9737;SDS011;4908;47.446;13.900;2023-09-19T15:18:42;1.40;;;0.90;;
9737;SDS011;4908;47.446;13.900;2023-09-19T15:21:12;3.15;;;1.13;;
9737;SDS011;4908;47.446;13.900;2023-09-19T15:23:42;1.00;;;0.90;;
9737;SDS011;4908;47.446;13.900;2023-09-19T15:26:11;2.47;;;0.80;;
9737;SDS011;4908;47.446;13.900;2023-09-19T15:28:42;0.93;;;0.68;;
9737;SDS011;4908;47.446;13.900;2023-09-19T15:31:10;0.82;;;0.80;;
9737;SDS011;4908;47.446;13.900;2023-09-19T15:33:39;1.02;;;0.80;;
9737;SDS011;4908;47.446;13.900;2023-09-19T15:36:07;0.80;;;0.80;;